Simon Green

Olheiro-Chefe - Leeds United
3 Dez 2028
Domingo
Processo

Personalidade

Adaptabilidade (18) Ambição (5) Controvérsia (2) Lealdade (14) Pressão (4) Profissionalismo (11) Espírito Esportivo (3) Temperamento (13)

Perfil

Estilo de Treinamento Democrático
Licença Nacional A
Determinação 14
Gestão de Pessoas 5
Motivação 7
Disciplina 8
Satisfação no Trabalho
100%
Fadiga
0%
Função Olheiro-Chefe
Salário 69.4K p/s
Contrato 14.03.2029

Desempenho

Comportamento Bom
Eficácia do Treinamento
46%
Desenvolvimento do Jogador
60%
Prevenção de Lesões
55%
Implementação Tática
55%

Eventos Recentes

Participou de uma reunião de recrutamento agora
Participou de uma reunião de recrutamento agora
Recomendou um alvo de transferência agora
Participou de uma reunião de recrutamento 7d atrás
Participou de uma reunião de recrutamento 7d atrás
Recomendou um alvo de transferência 7d atrás
Recomendou um alvo de transferência 7d atrás
Recomendou um alvo de transferência 7d atrás

Monitorando agora

162
Jogador Clube Status Habilidade Confiança Observado Última observação Último voto
Trey Nyoni Rotherham United Ativo 139 / 145 40% 8 04.07.2028 -
Daniel Banjaqui Benfica Ativo 127 / 132 40% 1 04.07.2028 -
Noah Markmann Esbjerg Ativo 120 / 123 40% 1 04.07.2028 -
Giovanni Leoni Lincoln City Ativo 143 / 144 40% 11 26.06.2028 -
Tobías Ramírez River Plate Ativo 121 / 136 40% 2 26.06.2028 -
Celías Ingenthron Platense Ativo 116 / 123 40% 1 26.06.2028 -
Christos Mouzakitis Hull City Ativo 136 / 144 40% 5 19.06.2028 -
Honest Ahanor Atalanta Ativo 139 / 143 40% 15 19.06.2028 -
Augusto Bando Ascoli Ativo 113 / 117 40% 2 12.06.2028 -
Andrey Ivlev Nizhniy Novgorod Ativo 120 / 121 40% 1 12.06.2028 -
André Miranda Porto Ativo 112 / 122 40% 1 04.06.2028 -
Alphadjo Cissé Lecce Ativo 133 / 134 40% 1 04.06.2028 -
Ronan Kpakio AC Milan Ativo 123 / 127 40% 13 31.05.2028 -
Ayden Heaven Portsmouth Ativo 146 / 155 40% 12 24.01.2028 -
Toni Fruk Talleres Ativo 132 / 133 66% 1 01.01.2028 -
Caleb Yirenkyi Coventry City Ativo 139 / 151 40% 11 31.12.2027 -
Tyler Fletcher Rotherham United Ativo 111 / 120 40% 7 31.12.2027 -
Riquelme Thompson-Jones Accrington Stanley Ativo 104 / 123 40% 2 31.12.2027 -
Olivier Mambwa Young Boys Ativo 112 / 114 40% 2 30.12.2027 -
Victor Hernandez Santa Fe Ativo 125 / 119 40% 12 29.12.2027 -
Josh Nichols Oldham Athletic Ativo 116 / 121 40% 5 28.12.2027 -
Lucas Bergvall Tottenham Ativo 155 / 156 40% 13 25.12.2027 -
Hugo Rojas Instituto Ativo 97 / 104 40% 3 23.12.2027 -
Esquerdinha Notts County Ativo 121 / 124 40% 4 19.12.2027 -
Matias Siltanen Malmo FF Ativo 121 / 134 40% 8 13.12.2027 -
Josh Acheampong Everton Ativo 138 / 146 40% 8 10.12.2027 -
Archie Gray Southampton Ativo 159 / 152 40% 8 06.12.2027 -
Jan Bürger Northampton Town Ativo 123 / 128 40% 4 01.12.2027 -
Juan Manuel Villalba Tigre Ativo 124 / 129 40% 3 29.11.2027 -
Agustín Obregón River Plate Ativo 114 / 119 40% 5 26.11.2027 -
Luka Vušković Tottenham Ativo 146 / 160 40% 4 25.11.2027 -
Nicolas Sport Recife Ativo 110 / 117 40% 1 20.11.2027 -
Adrian Skogmar Malmo FF Ativo 107 / 125 40% 3 30.10.2027 -
Rhys Walters Port Vale Ativo 102 / 118 40% 2 29.10.2027 -
Nazareno Roselli Defensa y Justicia Ativo 120 / 114 40% 1 25.10.2027 -
Matthew Litherland Harrogate Town Ativo 115 / 124 40% 1 19.10.2027 -
Eliás Montiel Borussia Dortmund Ativo 139 / 145 40% 9 30.09.2027 -
Kosta Nedeljković Aston Villa Ativo 139 / 140 40% 1 24.09.2027 -
Timoteo Chamorro Talleres Ativo 106 / 119 40% 1 19.09.2027 -
Jacob Wright Norwich City Ativo 117 / 129 40% 1 07.09.2027 -
José Cavadia Aguilas Doradas Ativo 97 / 112 40% 3 30.08.2027 -
Andrea Cogoni Cosenza Ativo 102 / 107 40% 1 11.08.2027 -
Sascha Britschgi AC Milan Ativo 123 / 128 40% 6 10.08.2027 -
Tiago Freitas Benfica Ativo 116 / 125 40% 4 07.08.2027 -
Riley Owen Stevenage Ativo 103 / 116 40% 4 06.08.2027 -
Miguel Figueiredo Benfica Ativo 113 / 122 40% 3 06.08.2027 -
Wessel Kuhn PSV Ativo 107 / 118 40% 4 02.08.2027 -
Martim Cunha Porto Ativo 104 / 111 40% 2 04.07.2027 -
Ezra Mayers West Ham United Ativo 113 / 132 40% 2 26.06.2027 -
Joe Johnson Luton Town Ativo 97 / 107 40% 1 24.06.2027 -
Vittorio Magni Cesena Ativo 101 / 110 40% 1 24.06.2027 -
Gady Beyuku Blackburn Rovers Ativo 117 / 124 40% 1 23.06.2027 -
Kiani Inge Groningen Ativo 110 / 114 40% 2 21.06.2027 -
Jaygo van Ommeren Utrecht Ativo 103 / 114 40% 1 17.06.2027 -
Thiago Almada LOSC Lille Ativo 145 / 146 69% 1 01.06.2027 Aprovar
Francisco Trincão Inter Ativo 156 / 156 66% 1 01.06.2027 Aprovar
Nathan Broadhead Wrexham Ativo 118 / 123 76% 1 01.06.2027 Aprovar
Samuele di Benedetto Twente Ativo 114 / 122 40% 1 01.06.2027 -
Aune Heggebø West Bromwich Albion Ativo 133 / 123 40% 1 31.05.2027 -
Leo Castledine Middlesbrough Ativo 133 / 127 40% 5 30.05.2027 -
Rocco Vata Watford Ativo 119 / 127 40% 7 30.05.2027 -
Filippo Distefano Empoli Ativo 110 / 119 40% 3 28.05.2027 -
Emanuel Emegha Chelsea Ativo 147 / 143 40% 9 24.05.2027 -
Giorgi Kvernadze Frosinone Ativo 124 / 124 40% 7 24.05.2027 -
Mohamed-Ali Cho Hull City Ativo 132 / 132 40% 3 23.05.2027 -
Malik Mothersille Stockport County Ativo 109 / 116 40% 3 23.05.2027 -
Mathys Tel Tottenham Ativo 139 / 144 40% 5 21.05.2027 -
Jay Stansfield Birmingham Ativo 128 / 122 40% 5 21.05.2027 -
Stiven Shpendi Empoli Ativo 117 / 118 40% 6 20.05.2027 -
Josh Coburn Millwall Ativo 122 / 122 40% 2 20.05.2027 -
Tyreece Campbell Charlton Athletic Ativo 117 / 118 40% 3 20.05.2027 -
Aidomo Emakhu Oxford United Ativo 124 / 123 40% 6 19.05.2027 -
Pablo Felipe West Ham United Ativo 139 / 133 40% 6 18.05.2027 -
Richard Koné Queens Park Rangers Ativo 129 / 125 40% 7 17.05.2027 -
Ilyas Ansah Hull City Ativo 125 / 139 40% 5 16.05.2027 -
Gonçalo Oliveira Benfica Ativo 110 / 115 40% 3 13.05.2027 -
Sindre Walle Egeli Udinese Ativo 134 / 137 40% 9 03.05.2027 -
Sam Bell Bristol City Ativo 117 / 125 40% 2 03.05.2027 -
Mateus Mané Burnley Ativo 139 / 137 40% 3 30.04.2027 -
Fábio Carvalho Brentford Ativo 140 / 144 40% 7 29.04.2027 -
Bence Dárdai VfL Wolfsburg Ativo 125 / 131 40% 1 26.04.2027 -
David Romero Parma Ativo 130 / 130 40% 4 24.04.2027 -
David Ozoh Derby County Ativo 123 / 125 40% 1 24.04.2027 -
Jeff Ekhator Juventus Ativo 128 / 134 40% 2 20.04.2027 -
Berna CSKA 1948 Ativo 111 / 119 40% 1 14.04.2027 -
Morgan Rogers Chelsea Ativo 161 / 156 40% 7 11.04.2027 -
Joe Gelhardt Hull City Ativo 132 / 137 40% 4 05.04.2027 -
Marezi Portsmouth Ativo 118 / 119 40% 1 31.03.2027 -
Georginio Rutter Brighton Ativo 153 / 144 40% 12 20.03.2027 -
Matt O'Riley Brighton Ativo 152 / 145 40% 1 19.01.2027 -
Yeremy Pino Crystal Palace Ativo 145 / 153 40% 1 19.01.2027 -
Iliman N'Diaye Everton Ativo 160 / 161 40% 6 31.12.2026 Observar
Giacomo Raspadori Atalanta Ativo 153 / 150 40% 1 31.12.2026 -
Mohammad Hosseini Malavan Ativo 118 / 121 40% 1 28.12.2026 -
Erick Dolly Black Aces Ativo 118 / 121 40% 4 27.12.2026 -
James Garner Everton Ativo 147 / 153 40% 3 27.12.2026 -
Michael Kayode Brentford Ativo 138 / 145 40% 1 27.12.2026 -
Rodrigo Muniz Fulham Ativo 135 / 142 40% 3 24.12.2026 -
Amadou Onana Aston Villa Ativo 159 / 160 40% 2 23.12.2026 -
Mats Wieffer Brighton Ativo 152 / 153 40% 1 23.12.2026 -
Evidence Makgopa Orlando Pirates Ativo 105 / 116 40% 2 21.12.2026 -
João Pedro Chelsea Ativo 142 / 156 40% 4 21.12.2026 -
Zach Ryan Ismaily Ativo 92 / 90 40% 3 20.12.2026 -
Yehor Yarmoliuk Brentford Ativo 149 / 146 40% 2 19.12.2026 -
Juanlu Bournemouth Ativo 145 / 150 40% 1 19.12.2026 -
Adam Wharton Crystal Palace Ativo 142 / 154 40% 2 17.12.2026 -
Maxence Lacroix Chelsea Ativo 154 / 143 40% 2 17.12.2026 -
Wilson Isidor Sunderland Ativo 130 / 131 40% 4 15.12.2026 -
Wessam Abou Ali Columbus Crew Ativo 130 / 128 40% 3 09.12.2026 -
Etiosa Ighodaro Kaizer Chiefs Ativo 114 / 117 40% 2 09.12.2026 -
Talles Magno New York City Ativo 127 / 130 40% 4 04.12.2026 -
Moisés Caicedo Chelsea Ativo 162 / 165 40% 2 03.12.2026 -
Nico O'Reilly Manchester City Ativo 148 / 158 40% 2 02.12.2026 -
Jarrad Branthwaite Everton Ativo 153 / 149 40% 1 02.12.2026 -
Ousmane Diomande Nottingham Forest Ativo 150 / 151 40% 3 01.12.2026 -
Elliot Anderson Manchester City Ativo 152 / 148 40% 1 01.12.2026 -
Nicolas Jackson Aston Villa Ativo 141 / 148 40% 3 29.11.2026 -
Kévin Denkey FC Cincinnati Ativo 126 / 131 40% 1 22.11.2026 -
Yeangel Montero Naxxar Lions Ativo 99 / 99 40% 1 22.11.2026 -
Yousef Salech Cardiff City Perdido 118 / 129 40% 5 21.11.2026 -
Bénie Traoré New York City Ativo 124 / 125 40% 4 20.11.2026 -
Josh Sargent Toronto FC Ativo 126 / 122 40% 3 20.11.2026 -
Tadeo Allende Inter Miami CF Ativo 120 / 127 40% 3 19.11.2026 -
Cheikh Sabaly Vancouver Whitecaps Ativo 121 / 127 40% 3 17.11.2026 -
Jesus Ferreira Seattle Sounders Ativo 134 / 128 40% 3 15.11.2026 -
Lewis Hall Newcastle United Ativo 142 / 148 40% 3 11.11.2026 -
Victor Olatunji Real Salt Lake Ativo 117 / 117 40% 3 10.11.2026 -
Ian Maatsen Aston Villa Ativo 152 / 146 40% 1 05.11.2026 -
Martín Ojeda Orlando City Ativo 138 / 131 40% 7 31.10.2026 -
Jan Paul van Hecke Tottenham Ativo 163 / 159 40% 1 31.10.2026 -
Sandro Tonali Tottenham Ativo 172 / 174 40% 1 28.10.2026 -
Ryan Sessegnon Fulham Ativo 145 / 138 40% 1 28.10.2026 -
Cody Gakpo Liverpool Ativo 155 / 157 40% 1 26.10.2026 -
Leonardo Campana New England Revolution Ativo 134 / 129 40% 1 24.10.2026 -
Kevin Schade Chelsea Ativo 157 / 143 40% 1 23.10.2026 -
Kelvin Yeboah Minnesota United FC Ativo 123 / 123 40% 1 21.10.2026 -
Germán Berterame Inter Miami CF Ativo 139 / 137 40% 3 17.10.2026 -
Gabriel Martinelli Arsenal Ativo 166 / 156 40% 2 16.10.2026 -
Ryan Gravenberch Liverpool Ativo 157 / 156 40% 2 12.10.2026 -
Matthijs de Ligt Manchester United Ativo 148 / 162 40% 1 12.10.2026 -
Nicolò Tresoldi Club Brugge Ativo 138 / 132 40% 1 11.10.2026 -
Agustín Anello Philadelphia Union Ativo 124 / 129 40% 2 09.10.2026 -
Matheus Cunha Manchester United Ativo 163 / 152 40% 1 08.10.2026 -
Tyrese Campbell Sheffield United Ativo 118 / 124 40% 1 06.10.2026 -
Tino Livramento Newcastle United Ativo 149 / 162 40% 1 05.10.2026 -
Wesley Fofana Chelsea Ativo 164 / 155 40% 1 05.10.2026 -
Alonso Martínez New York City Ativo 112 / 123 40% 4 03.10.2026 -
Alexander Isak Liverpool Ativo 170 / 167 40% 3 02.10.2026 -
Indiana Vassilev Philadelphia Union Ativo 114 / 124 40% 1 30.09.2026 -
Kevin Kelsy Portland Timbers Ativo 114 / 115 40% 2 27.09.2026 -
Dejan Joveljić Seattle Sounders Ativo 130 / 129 40% 1 27.09.2026 -
Brandon Vázquez Austin FC Ativo 118 / 123 40% 2 26.09.2026 -
Taty Castellanos West Ham United Ativo 144 / 148 40% 1 24.09.2026 -
Alexander Aravena Portland Timbers Ativo 117 / 127 40% 1 22.09.2026 -
Maclyn Biokpo Jenewari Rivers United Ativo 88 / 92 40% 1 21.09.2026 -
Duncan McGuire Houston Dynamo Ativo 117 / 128 40% 3 20.09.2026 -
André Wolverhampton Ativo 138 / 142 40% 1 20.09.2026 -
Jeremie Frimpong Liverpool Ativo 158 / 160 40% 1 20.09.2026 -
Aaron Hickey Brentford Ativo 136 / 149 40% 1 19.09.2026 -
Alejandro Piedrahita Deportivo Pereira Ativo 131 / 124 40% 1 15.09.2026 -
Pedro Porro Tottenham Ativo 142 / 146 40% 1 15.09.2026 -
Cemran Dansin Orlando Pirates Ativo 94 / 111 40% 1 02.08.2026 -